sensor_id;sensor_type;location;lat;lon;timestamp;P1;durP1;ratioP1;P2;durP2;ratioP2
35907;SDS011;22003;50.320;8.054;2024-01-30T00:00:28;43.65;;;22.35;;
35907;SDS011;22003;50.320;8.054;2024-01-30T00:02:53;42.25;;;21.88;;
35907;SDS011;22003;50.320;8.054;2024-01-30T00:05:19;51.88;;;25.25;;
35907;SDS011;22003;50.320;8.054;2024-01-30T00:07:44;37.30;;;20.15;;
35907;SDS011;22003;50.320;8.054;2024-01-30T00:10:09;38.88;;;20.05;;
35907;SDS011;22003;50.320;8.054;2024-01-30T00:12:35;32.08;;;16.30;;
35907;SDS011;22003;50.320;8.054;2024-01-30T00:15:00;32.47;;;18.63;;
35907;SDS011;22003;50.320;8.054;2024-01-30T00:17:25;39.70;;;22.65;;
35907;SDS011;22003;50.320;8.054;2024-01-30T00:19:51;47.30;;;26.30;;
35907;SDS011;22003;50.320;8.054;2024-01-30T00:22:17;36.40;;;22.15;;
35907;SDS011;22003;50.320;8.054;2024-01-30T00:24:42;51.03;;;24.42;;
35907;SDS011;22003;50.320;8.054;2024-01-30T00:27:07;45.05;;;24.17;;
35907;SDS011;22003;50.320;8.054;2024-01-30T00:29:33;47.28;;;23.02;;
35907;SDS011;22003;50.320;8.054;2024-01-30T00:31:59;43.22;;;23.42;;
35907;SDS011;22003;50.320;8.054;2024-01-30T00:34:24;45.53;;;22.20;;
35907;SDS011;22003;50.320;8.054;2024-01-30T00:36:50;43.40;;;22.40;;
35907;SDS011;22003;50.320;8.054;2024-01-30T00:39:15;39.03;;;23.58;;
35907;SDS011;22003;50.320;8.054;2024-01-30T00:41:40;36.28;;;21.38;;
35907;SDS011;22003;50.320;8.054;2024-01-30T00:44:06;44.28;;;22.02;;
35907;SDS011;22003;50.320;8.054;2024-01-30T00:46:31;40.83;;;21.95;;
35907;SDS011;22003;50.320;8.054;2024-01-30T00:48:56;44.25;;;22.02;;
35907;SDS011;22003;50.320;8.054;2024-01-30T00:51:22;46.40;;;21.17;;
35907;SDS011;22003;50.320;8.054;2024-01-30T00:53:47;42.72;;;22.13;;
35907;SDS011;22003;50.320;8.054;2024-01-30T00:56:12;51.67;;;22.38;;
35907;SDS011;22003;50.320;8.054;2024-01-30T00:58:38;37.38;;;19.35;;
35907;SDS011;22003;50.320;8.054;2024-01-30T01:01:03;48.90;;;22.02;;
35907;SDS011;22003;50.320;8.054;2024-01-30T01:03:29;51.58;;;23.45;;
35907;SDS011;22003;50.320;8.054;2024-01-30T01:05:54;39.28;;;22.90;;
35907;SDS011;22003;50.320;8.054;2024-01-30T01:08:19;46.95;;;23.50;;
35907;SDS011;22003;50.320;8.054;2024-01-30T01:10:45;44.55;;;22.00;;
35907;SDS011;22003;50.320;8.054;2024-01-30T01:13:10;45.60;;;22.98;;
35907;SDS011;22003;50.320;8.054;2024-01-30T01:15:35;45.85;;;22.83;;
35907;SDS011;22003;50.320;8.054;2024-01-30T01:18:02;51.53;;;23.40;;
35907;SDS011;22003;50.320;8.054;2024-01-30T01:20:27;59.08;;;22.85;;
35907;SDS011;22003;50.320;8.054;2024-01-30T01:22:52;45.30;;;22.02;;
35907;SDS011;22003;50.320;8.054;2024-01-30T01:25:18;60.45;;;20.55;;
35907;SDS011;22003;50.320;8.054;2024-01-30T01:27:43;41.08;;;19.13;;
35907;SDS011;22003;50.320;8.054;2024-01-30T01:30:09;40.10;;;17.88;;
35907;SDS011;22003;50.320;8.054;2024-01-30T01:32:36;34.83;;;18.35;;
35907;SDS011;22003;50.320;8.054;2024-01-30T01:35:03;40.93;;;18.87;;
35907;SDS011;22003;50.320;8.054;2024-01-30T01:37:30;36.45;;;18.55;;
35907;SDS011;22003;50.320;8.054;2024-01-30T01:39:56;34.85;;;17.73;;
35907;SDS011;22003;50.320;8.054;2024-01-30T01:42:21;45.28;;;20.83;;
35907;SDS011;22003;50.320;8.054;2024-01-30T01:44:47;38.47;;;18.13;;
35907;SDS011;22003;50.320;8.054;2024-01-30T01:47:12;67.65;;;21.48;;
35907;SDS011;22003;50.320;8.054;2024-01-30T01:49:37;48.90;;;19.45;;
35907;SDS011;22003;50.320;8.054;2024-01-30T01:52:03;35.20;;;17.42;;
35907;SDS011;22003;50.320;8.054;2024-01-30T01:54:29;39.10;;;18.98;;
35907;SDS011;22003;50.320;8.054;2024-01-30T01:56:55;33.88;;;17.13;;
35907;SDS011;22003;50.320;8.054;2024-01-30T01:59:22;28.85;;;15.18;;
35907;SDS011;22003;50.320;8.054;2024-01-30T02:01:48;32.17;;;17.30;;
35907;SDS011;22003;50.320;8.054;2024-01-30T02:04:14;86.32;;;21.80;;
35907;SDS011;22003;50.320;8.054;2024-01-30T02:06:40;35.38;;;17.08;;
35907;SDS011;22003;50.320;8.054;2024-01-30T02:09:05;36.05;;;17.25;;
35907;SDS011;22003;50.320;8.054;2024-01-30T02:11:31;37.88;;;19.05;;
35907;SDS011;22003;50.320;8.054;2024-01-30T02:14:01;51.70;;;19.27;;
35907;SDS011;22003;50.320;8.054;2024-01-30T02:16:27;52.55;;;22.38;;
35907;SDS011;22003;50.320;8.054;2024-01-30T02:18:53;58.10;;;23.13;;
35907;SDS011;22003;50.320;8.054;2024-01-30T02:21:18;55.63;;;21.02;;
35907;SDS011;22003;50.320;8.054;2024-01-30T02:23:44;41.53;;;19.33;;
35907;SDS011;22003;50.320;8.054;2024-01-30T02:26:11;76.10;;;22.48;;
35907;SDS011;22003;50.320;8.054;2024-01-30T02:28:37;57.28;;;22.25;;
35907;SDS011;22003;50.320;8.054;2024-01-30T02:31:03;39.92;;;19.35;;
35907;SDS011;22003;50.320;8.054;2024-01-30T02:33:29;33.45;;;18.23;;
35907;SDS011;22003;50.320;8.054;2024-01-30T02:35:54;47.38;;;20.55;;
35907;SDS011;22003;50.320;8.054;2024-01-30T02:38:20;47.30;;;19.17;;
35907;SDS011;22003;50.320;8.054;2024-01-30T02:40:45;39.35;;;20.75;;
35907;SDS011;22003;50.320;8.054;2024-01-30T02:43:10;36.53;;;19.20;;
35907;SDS011;22003;50.320;8.054;2024-01-30T02:45:35;41.15;;;18.92;;
35907;SDS011;22003;50.320;8.054;2024-01-30T02:48:01;56.53;;;18.05;;
35907;SDS011;22003;50.320;8.054;2024-01-30T02:50:26;42.78;;;19.45;;
35907;SDS011;22003;50.320;8.054;2024-01-30T02:52:51;41.95;;;19.77;;
35907;SDS011;22003;50.320;8.054;2024-01-30T02:55:17;48.88;;;19.60;;
35907;SDS011;22003;50.320;8.054;2024-01-30T02:57:45;42.00;;;17.95;;
35907;SDS011;22003;50.320;8.054;2024-01-30T03:00:10;48.88;;;22.10;;
35907;SDS011;22003;50.320;8.054;2024-01-30T03:02:36;51.58;;;20.70;;
35907;SDS011;22003;50.320;8.054;2024-01-30T03:05:02;50.20;;;19.63;;
35907;SDS011;22003;50.320;8.054;2024-01-30T03:07:28;45.93;;;20.03;;
35907;SDS011;22003;50.320;8.054;2024-01-30T03:09:54;51.25;;;20.40;;
35907;SDS011;22003;50.320;8.054;2024-01-30T03:12:20;49.63;;;20.60;;
35907;SDS011;22003;50.320;8.054;2024-01-30T03:14:45;56.85;;;20.38;;
35907;SDS011;22003;50.320;8.054;2024-01-30T03:17:11;49.97;;;20.90;;
35907;SDS011;22003;50.320;8.054;2024-01-30T03:19:36;58.30;;;21.10;;
35907;SDS011;22003;50.320;8.054;2024-01-30T03:22:01;51.13;;;20.33;;
35907;SDS011;22003;50.320;8.054;2024-01-30T03:24:27;77.07;;;23.63;;
35907;SDS011;22003;50.320;8.054;2024-01-30T03:26:52;54.63;;;21.17;;
35907;SDS011;22003;50.320;8.054;2024-01-30T03:29:18;94.10;;;23.92;;
35907;SDS011;22003;50.320;8.054;2024-01-30T03:31:43;71.30;;;21.48;;
35907;SDS011;22003;50.320;8.054;2024-01-30T03:34:09;51.30;;;21.42;;
35907;SDS011;22003;50.320;8.054;2024-01-30T03:36:34;68.32;;;22.45;;
35907;SDS011;22003;50.320;8.054;2024-01-30T03:38:59;50.38;;;20.70;;
35907;SDS011;22003;50.320;8.054;2024-01-30T03:41:25;70.35;;;22.50;;
35907;SDS011;22003;50.320;8.054;2024-01-30T03:43:51;67.63;;;22.65;;
35907;SDS011;22003;50.320;8.054;2024-01-30T03:46:16;58.15;;;21.17;;
35907;SDS011;22003;50.320;8.054;2024-01-30T03:48:41;78.90;;;23.25;;
35907;SDS011;22003;50.320;8.054;2024-01-30T03:51:06;82.03;;;22.08;;
35907;SDS011;22003;50.320;8.054;2024-01-30T03:53:32;55.83;;;21.33;;
35907;SDS011;22003;50.320;8.054;2024-01-30T03:55:57;60.40;;;20.92;;
35907;SDS011;22003;50.320;8.054;2024-01-30T03:58:22;49.70;;;21.35;;
35907;SDS011;22003;50.320;8.054;2024-01-30T04:00:48;62.35;;;21.33;;
35907;SDS011;22003;50.320;8.054;2024-01-30T04:03:16;66.95;;;21.02;;
35907;SDS011;22003;50.320;8.054;2024-01-30T04:05:42;85.07;;;26.10;;
35907;SDS011;22003;50.320;8.054;2024-01-30T04:08:07;83.05;;;28.20;;
35907;SDS011;22003;50.320;8.054;2024-01-30T04:10:33;66.93;;;24.65;;
35907;SDS011;22003;50.320;8.054;2024-01-30T04:12:59;75.72;;;26.10;;
35907;SDS011;22003;50.320;8.054;2024-01-30T04:15:24;57.70;;;24.05;;
35907;SDS011;22003;50.320;8.054;2024-01-30T04:17:50;62.05;;;22.90;;
35907;SDS011;22003;50.320;8.054;2024-01-30T04:20:15;57.75;;;24.52;;
35907;SDS011;22003;50.320;8.054;2024-01-30T04:22:44;64.63;;;24.58;;
35907;SDS011;22003;50.320;8.054;2024-01-30T04:25:09;73.95;;;23.48;;
35907;SDS011;22003;50.320;8.054;2024-01-30T04:27:35;48.85;;;22.40;;
35907;SDS011;22003;50.320;8.054;2024-01-30T04:30:00;50.78;;;21.08;;
35907;SDS011;22003;50.320;8.054;2024-01-30T04:32:25;50.42;;;20.27;;
35907;SDS011;22003;50.320;8.054;2024-01-30T04:34:50;48.42;;;20.45;;
35907;SDS011;22003;50.320;8.054;2024-01-30T04:37:16;49.22;;;21.85;;
35907;SDS011;22003;50.320;8.054;2024-01-30T04:39:41;64.30;;;23.67;;
35907;SDS011;22003;50.320;8.054;2024-01-30T04:42:07;52.92;;;23.38;;
35907;SDS011;22003;50.320;8.054;2024-01-30T04:44:32;64.57;;;21.60;;
35907;SDS011;22003;50.320;8.054;2024-01-30T04:46:57;55.50;;;21.02;;
35907;SDS011;22003;50.320;8.054;2024-01-30T04:49:26;58.92;;;23.35;;
35907;SDS011;22003;50.320;8.054;2024-01-30T04:51:51;66.68;;;23.25;;
35907;SDS011;22003;50.320;8.054;2024-01-30T04:54:16;52.45;;;22.58;;
35907;SDS011;22003;50.320;8.054;2024-01-30T04:56:42;63.85;;;23.02;;
35907;SDS011;22003;50.320;8.054;2024-01-30T04:59:07;63.47;;;24.40;;
35907;SDS011;22003;50.320;8.054;2024-01-30T05:01:33;49.83;;;23.25;;
35907;SDS011;22003;50.320;8.054;2024-01-30T05:03:58;57.13;;;24.30;;
35907;SDS011;22003;50.320;8.054;2024-01-30T05:06:24;64.38;;;24.80;;
35907;SDS011;22003;50.320;8.054;2024-01-30T05:08:50;65.80;;;23.33;;
35907;SDS011;22003;50.320;8.054;2024-01-30T05:11:16;74.63;;;23.70;;
35907;SDS011;22003;50.320;8.054;2024-01-30T05:13:41;68.80;;;25.30;;
35907;SDS011;22003;50.320;8.054;2024-01-30T05:16:06;59.40;;;25.38;;
35907;SDS011;22003;50.320;8.054;2024-01-30T05:18:31;61.45;;;26.15;;
35907;SDS011;22003;50.320;8.054;2024-01-30T05:20:57;65.43;;;25.92;;
35907;SDS011;22003;50.320;8.054;2024-01-30T05:23:22;60.72;;;26.98;;
35907;SDS011;22003;50.320;8.054;2024-01-30T05:25:47;68.70;;;27.05;;
35907;SDS011;22003;50.320;8.054;2024-01-30T05:28:12;92.65;;;33.63;;
35907;SDS011;22003;50.320;8.054;2024-01-30T05:30:38;113.40;;;37.28;;
35907;SDS011;22003;50.320;8.054;2024-01-30T05:33:03;153.15;;;39.78;;
35907;SDS011;22003;50.320;8.054;2024-01-30T05:35:29;139.68;;;31.33;;
35907;SDS011;22003;50.320;8.054;2024-01-30T05:37:54;75.80;;;22.42;;
35907;SDS011;22003;50.320;8.054;2024-01-30T05:40:19;79.68;;;26.48;;
35907;SDS011;22003;50.320;8.054;2024-01-30T05:42:45;82.55;;;27.48;;
35907;SDS011;22003;50.320;8.054;2024-01-30T05:45:10;67.95;;;23.80;;
35907;SDS011;22003;50.320;8.054;2024-01-30T05:47:35;62.33;;;23.58;;
35907;SDS011;22003;50.320;8.054;2024-01-30T05:50:00;73.40;;;25.73;;
35907;SDS011;22003;50.320;8.054;2024-01-30T05:52:26;107.03;;;31.35;;
35907;SDS011;22003;50.320;8.054;2024-01-30T05:54:51;72.95;;;27.20;;
35907;SDS011;22003;50.320;8.054;2024-01-30T05:57:16;85.68;;;26.95;;
35907;SDS011;22003;50.320;8.054;2024-01-30T05:59:41;115.55;;;30.10;;
35907;SDS011;22003;50.320;8.054;2024-01-30T06:02:09;136.30;;;34.53;;
35907;SDS011;22003;50.320;8.054;2024-01-30T06:04:35;114.00;;;31.40;;
35907;SDS011;22003;50.320;8.054;2024-01-30T06:07:00;102.10;;;30.05;;
35907;SDS011;22003;50.320;8.054;2024-01-30T06:09:26;88.93;;;29.38;;
35907;SDS011;22003;50.320;8.054;2024-01-30T06:11:52;109.68;;;29.58;;
35907;SDS011;22003;50.320;8.054;2024-01-30T06:14:17;129.40;;;28.30;;
35907;SDS011;22003;50.320;8.054;2024-01-30T06:16:42;112.50;;;29.77;;
35907;SDS011;22003;50.320;8.054;2024-01-30T06:19:08;105.85;;;29.40;;
35907;SDS011;22003;50.320;8.054;2024-01-30T06:21:33;92.60;;;29.42;;
35907;SDS011;22003;50.320;8.054;2024-01-30T06:24:01;80.60;;;26.58;;
35907;SDS011;22003;50.320;8.054;2024-01-30T06:26:27;75.78;;;27.63;;
35907;SDS011;22003;50.320;8.054;2024-01-30T06:28:52;67.55;;;25.30;;
35907;SDS011;22003;50.320;8.054;2024-01-30T06:31:17;107.93;;;31.20;;
35907;SDS011;22003;50.320;8.054;2024-01-30T06:33:42;173.75;;;38.45;;
35907;SDS011;22003;50.320;8.054;2024-01-30T06:36:08;149.85;;;35.88;;
35907;SDS011;22003;50.320;8.054;2024-01-30T06:38:33;130.82;;;38.15;;
35907;SDS011;22003;50.320;8.054;2024-01-30T06:40:58;119.90;;;34.03;;
35907;SDS011;22003;50.320;8.054;2024-01-30T06:43:24;138.52;;;37.22;;
35907;SDS011;22003;50.320;8.054;2024-01-30T06:45:49;138.57;;;34.40;;
35907;SDS011;22003;50.320;8.054;2024-01-30T06:48:15;121.57;;;33.17;;
35907;SDS011;22003;50.320;8.054;2024-01-30T06:50:40;122.32;;;32.67;;
35907;SDS011;22003;50.320;8.054;2024-01-30T06:53:06;87.93;;;29.10;;
35907;SDS011;22003;50.320;8.054;2024-01-30T06:55:31;130.57;;;32.03;;
35907;SDS011;22003;50.320;8.054;2024-01-30T06:57:56;149.35;;;31.75;;
35907;SDS011;22003;50.320;8.054;2024-01-30T07:00:21;65.30;;;25.40;;
35907;SDS011;22003;50.320;8.054;2024-01-30T07:02:48;70.82;;;28.17;;
35907;SDS011;22003;50.320;8.054;2024-01-30T07:05:13;81.22;;;29.27;;
35907;SDS011;22003;50.320;8.054;2024-01-30T07:07:39;117.47;;;28.77;;
35907;SDS011;22003;50.320;8.054;2024-01-30T07:10:04;86.95;;;27.38;;
35907;SDS011;22003;50.320;8.054;2024-01-30T07:12:30;141.73;;;31.52;;
35907;SDS011;22003;50.320;8.054;2024-01-30T07:14:56;188.98;;;32.50;;
35907;SDS011;22003;50.320;8.054;2024-01-30T07:17:21;158.05;;;29.60;;
35907;SDS011;22003;50.320;8.054;2024-01-30T07:19:46;169.60;;;28.92;;
35907;SDS011;22003;50.320;8.054;2024-01-30T07:22:12;253.00;;;32.78;;
35907;SDS011;22003;50.320;8.054;2024-01-30T07:24:41;352.17;;;40.20;;
35907;SDS011;22003;50.320;8.054;2024-01-30T07:27:09;415.73;;;42.45;;
35907;SDS011;22003;50.320;8.054;2024-01-30T07:29:34;363.85;;;34.45;;
35907;SDS011;22003;50.320;8.054;2024-01-30T07:32:00;291.98;;;33.15;;
35907;SDS011;22003;50.320;8.054;2024-01-30T07:34:25;288.38;;;35.25;;
35907;SDS011;22003;50.320;8.054;2024-01-30T07:36:50;286.73;;;32.45;;
35907;SDS011;22003;50.320;8.054;2024-01-30T07:39:15;253.32;;;30.98;;
35907;SDS011;22003;50.320;8.054;2024-01-30T07:41:41;191.35;;;27.05;;
35907;SDS011;22003;50.320;8.054;2024-01-30T07:44:06;173.18;;;29.70;;
35907;SDS011;22003;50.320;8.054;2024-01-30T07:46:31;96.80;;;24.70;;
35907;SDS011;22003;50.320;8.054;2024-01-30T07:48:56;143.05;;;24.92;;
35907;SDS011;22003;50.320;8.054;2024-01-30T07:51:22;129.05;;;24.95;;
35907;SDS011;22003;50.320;8.054;2024-01-30T07:53:47;94.45;;;23.00;;
35907;SDS011;22003;50.320;8.054;2024-01-30T07:56:12;79.05;;;24.23;;
35907;SDS011;22003;50.320;8.054;2024-01-30T07:58:38;91.35;;;23.45;;
35907;SDS011;22003;50.320;8.054;2024-01-30T08:01:03;64.97;;;22.50;;
35907;SDS011;22003;50.320;8.054;2024-01-30T08:03:29;73.63;;;22.02;;
35907;SDS011;22003;50.320;8.054;2024-01-30T08:05:54;97.45;;;23.33;;
35907;SDS011;22003;50.320;8.054;2024-01-30T08:08:20;93.82;;;24.17;;
35907;SDS011;22003;50.320;8.054;2024-01-30T08:10:45;93.82;;;26.73;;
35907;SDS011;22003;50.320;8.054;2024-01-30T08:13:10;123.05;;;27.83;;
35907;SDS011;22003;50.320;8.054;2024-01-30T08:15:36;80.50;;;25.45;;
35907;SDS011;22003;50.320;8.054;2024-01-30T08:18:01;103.43;;;28.35;;
35907;SDS011;22003;50.320;8.054;2024-01-30T08:20:26;121.97;;;29.52;;
35907;SDS011;22003;50.320;8.054;2024-01-30T08:22:52;98.85;;;26.00;;
35907;SDS011;22003;50.320;8.054;2024-01-30T08:25:17;89.50;;;25.25;;
35907;SDS011;22003;50.320;8.054;2024-01-30T08:27:43;82.68;;;26.48;;
35907;SDS011;22003;50.320;8.054;2024-01-30T08:30:09;93.38;;;25.00;;
35907;SDS011;22003;50.320;8.054;2024-01-30T08:32:34;66.80;;;25.80;;
35907;SDS011;22003;50.320;8.054;2024-01-30T08:35:00;100.28;;;26.23;;
35907;SDS011;22003;50.320;8.054;2024-01-30T08:37:28;208.52;;;34.70;;
35907;SDS011;22003;50.320;8.054;2024-01-30T08:39:54;217.63;;;31.85;;
35907;SDS011;22003;50.320;8.054;2024-01-30T08:42:19;145.18;;;28.92;;
35907;SDS011;22003;50.320;8.054;2024-01-30T08:44:47;72.10;;;25.45;;
35907;SDS011;22003;50.320;8.054;2024-01-30T08:47:13;64.50;;;26.35;;
35907;SDS011;22003;50.320;8.054;2024-01-30T08:49:38;67.43;;;27.33;;
35907;SDS011;22003;50.320;8.054;2024-01-30T08:52:03;41.80;;;23.33;;
35907;SDS011;22003;50.320;8.054;2024-01-30T08:54:29;43.92;;;24.42;;
35907;SDS011;22003;50.320;8.054;2024-01-30T08:56:54;52.97;;;23.90;;
35907;SDS011;22003;50.320;8.054;2024-01-30T08:59:21;50.70;;;23.98;;
35907;SDS011;22003;50.320;8.054;2024-01-30T09:01:46;49.08;;;25.00;;
35907;SDS011;22003;50.320;8.054;2024-01-30T09:04:12;48.40;;;25.02;;
35907;SDS011;22003;50.320;8.054;2024-01-30T09:06:37;45.13;;;24.48;;
35907;SDS011;22003;50.320;8.054;2024-01-30T09:09:04;32.70;;;17.55;;
35907;SDS011;22003;50.320;8.054;2024-01-30T09:11:30;45.88;;;23.45;;
35907;SDS011;22003;50.320;8.054;2024-01-30T09:13:55;40.53;;;22.85;;
35907;SDS011;22003;50.320;8.054;2024-01-30T09:16:20;43.60;;;22.75;;
35907;SDS011;22003;50.320;8.054;2024-01-30T09:18:45;42.83;;;22.40;;
35907;SDS011;22003;50.320;8.054;2024-01-30T09:21:10;40.00;;;22.52;;
35907;SDS011;22003;50.320;8.054;2024-01-30T09:23:36;43.00;;;23.20;;
35907;SDS011;22003;50.320;8.054;2024-01-30T09:26:01;41.33;;;23.27;;
35907;SDS011;22003;50.320;8.054;2024-01-30T09:28:26;38.42;;;21.88;;
35907;SDS011;22003;50.320;8.054;2024-01-30T09:30:52;44.60;;;23.92;;
35907;SDS011;22003;50.320;8.054;2024-01-30T09:33:17;42.88;;;23.30;;
35907;SDS011;22003;50.320;8.054;2024-01-30T09:35:42;43.83;;;23.90;;
35907;SDS011;22003;50.320;8.054;2024-01-30T09:38:07;39.38;;;22.63;;
35907;SDS011;22003;50.320;8.054;2024-01-30T09:40:33;40.72;;;21.33;;
35907;SDS011;22003;50.320;8.054;2024-01-30T09:42:58;35.92;;;20.63;;
35907;SDS011;22003;50.320;8.054;2024-01-30T09:45:25;40.15;;;21.00;;
35907;SDS011;22003;50.320;8.054;2024-01-30T09:47:51;34.47;;;20.02;;
35907;SDS011;22003;50.320;8.054;2024-01-30T09:50:17;38.72;;;20.92;;
35907;SDS011;22003;50.320;8.054;2024-01-30T09:52:44;31.73;;;19.50;;
35907;SDS011;22003;50.320;8.054;2024-01-30T09:55:10;36.35;;;19.65;;
35907;SDS011;22003;50.320;8.054;2024-01-30T09:57:36;36.17;;;20.63;;
35907;SDS011;22003;50.320;8.054;2024-01-30T10:00:02;38.90;;;21.63;;
35907;SDS011;22003;50.320;8.054;2024-01-30T10:02:33;33.90;;;19.95;;
35907;SDS011;22003;50.320;8.054;2024-01-30T10:04:59;33.97;;;20.00;;
35907;SDS011;22003;50.320;8.054;2024-01-30T10:07:25;34.75;;;21.42;;
35907;SDS011;22003;50.320;8.054;2024-01-30T10:09:50;32.35;;;20.55;;
35907;SDS011;22003;50.320;8.054;2024-01-30T10:12:18;34.80;;;19.70;;
35907;SDS011;22003;50.320;8.054;2024-01-30T10:14:43;34.05;;;20.55;;
35907;SDS011;22003;50.320;8.054;2024-01-30T10:17:09;34.25;;;19.98;;
35907;SDS011;22003;50.320;8.054;2024-01-30T10:19:37;35.50;;;19.83;;
35907;SDS011;22003;50.320;8.054;2024-01-30T10:22:03;33.00;;;20.70;;
35907;SDS011;22003;50.320;8.054;2024-01-30T10:24:29;36.47;;;21.52;;
35907;SDS011;22003;50.320;8.054;2024-01-30T10:26:54;31.23;;;20.88;;
35907;SDS011;22003;50.320;8.054;2024-01-30T10:29:20;33.90;;;20.00;;
35907;SDS011;22003;50.320;8.054;2024-01-30T10:31:45;35.72;;;21.83;;
35907;SDS011;22003;50.320;8.054;2024-01-30T10:34:12;34.20;;;20.90;;
35907;SDS011;22003;50.320;8.054;2024-01-30T10:36:40;31.30;;;21.23;;
35907;SDS011;22003;50.320;8.054;2024-01-30T10:39:07;32.20;;;20.30;;
35907;SDS011;22003;50.320;8.054;2024-01-30T10:41:34;29.98;;;20.00;;
35907;SDS011;22003;50.320;8.054;2024-01-30T10:44:08;30.73;;;19.67;;
35907;SDS011;22003;50.320;8.054;2024-01-30T10:46:34;28.05;;;19.40;;
35907;SDS011;22003;50.320;8.054;2024-01-30T10:49:00;29.42;;;18.92;;
35907;SDS011;22003;50.320;8.054;2024-01-30T10:51:28;32.22;;;19.67;;
35907;SDS011;22003;50.320;8.054;2024-01-30T10:53:54;33.22;;;19.33;;
35907;SDS011;22003;50.320;8.054;2024-01-30T10:56:20;37.65;;;22.42;;
35907;SDS011;22003;50.320;8.054;2024-01-30T10:58:47;37.25;;;22.23;;
35907;SDS011;22003;50.320;8.054;2024-01-30T11:01:14;38.45;;;20.95;;
35907;SDS011;22003;50.320;8.054;2024-01-30T11:03:40;35.03;;;21.40;;
35907;SDS011;22003;50.320;8.054;2024-01-30T11:06:10;45.05;;;22.98;;
35907;SDS011;22003;50.320;8.054;2024-01-30T11:08:37;40.72;;;23.65;;
35907;SDS011;22003;50.320;8.054;2024-01-30T11:11:02;35.70;;;21.75;;
35907;SDS011;22003;50.320;8.054;2024-01-30T11:13:34;35.92;;;21.42;;
35907;SDS011;22003;50.320;8.054;2024-01-30T11:16:00;33.55;;;21.15;;
35907;SDS011;22003;50.320;8.054;2024-01-30T11:18:28;38.00;;;24.33;;
35907;SDS011;22003;50.320;8.054;2024-01-30T11:20:58;38.67;;;22.08;;
35907;SDS011;22003;50.320;8.054;2024-01-30T11:23:26;38.80;;;20.42;;
35907;SDS011;22003;50.320;8.054;2024-01-30T11:25:52;36.22;;;21.52;;
35907;SDS011;22003;50.320;8.054;2024-01-30T11:28:18;36.30;;;21.20;;
35907;SDS011;22003;50.320;8.054;2024-01-30T11:33:13;34.17;;;20.23;;
35907;SDS011;22003;50.320;8.054;2024-01-30T11:35:39;32.13;;;21.48;;
35907;SDS011;22003;50.320;8.054;2024-01-30T11:38:07;37.00;;;23.67;;
35907;SDS011;22003;50.320;8.054;2024-01-30T11:40:33;37.03;;;22.83;;
35907;SDS011;22003;50.320;8.054;2024-01-30T11:43:01;39.65;;;22.83;;
35907;SDS011;22003;50.320;8.054;2024-01-30T11:45:29;36.20;;;23.48;;
35907;SDS011;22003;50.320;8.054;2024-01-30T11:47:55;38.53;;;22.90;;
35907;SDS011;22003;50.320;8.054;2024-01-30T11:50:22;42.50;;;24.10;;
35907;SDS011;22003;50.320;8.054;2024-01-30T11:52:48;37.33;;;22.60;;
35907;SDS011;22003;50.320;8.054;2024-01-30T11:55:14;35.00;;;21.52;;
35907;SDS011;22003;50.320;8.054;2024-01-30T11:57:39;38.88;;;22.80;;
35907;SDS011;22003;50.320;8.054;2024-01-30T12:00:05;35.60;;;20.40;;
35907;SDS011;22003;50.320;8.054;2024-01-30T12:02:38;32.58;;;19.95;;
35907;SDS011;22003;50.320;8.054;2024-01-30T12:05:06;41.75;;;20.98;;
35907;SDS011;22003;50.320;8.054;2024-01-30T12:07:32;40.75;;;22.50;;
35907;SDS011;22003;50.320;8.054;2024-01-30T12:09:58;49.78;;;20.42;;
35907;SDS011;22003;50.320;8.054;2024-01-30T12:12:26;43.60;;;21.58;;
35907;SDS011;22003;50.320;8.054;2024-01-30T12:14:53;39.97;;;20.92;;
35907;SDS011;22003;50.320;8.054;2024-01-30T12:17:23;40.40;;;20.40;;
35907;SDS011;22003;50.320;8.054;2024-01-30T12:19:49;31.27;;;19.17;;
35907;SDS011;22003;50.320;8.054;2024-01-30T12:22:15;42.08;;;20.25;;
35907;SDS011;22003;50.320;8.054;2024-01-30T12:24:40;31.75;;;19.55;;
35907;SDS011;22003;50.320;8.054;2024-01-30T12:27:05;31.63;;;19.75;;
35907;SDS011;22003;50.320;8.054;2024-01-30T12:29:34;39.88;;;19.35;;
35907;SDS011;22003;50.320;8.054;2024-01-30T12:31:59;34.95;;;18.88;;
35907;SDS011;22003;50.320;8.054;2024-01-30T12:34:25;37.60;;;19.33;;
35907;SDS011;22003;50.320;8.054;2024-01-30T12:36:50;33.28;;;18.17;;
35907;SDS011;22003;50.320;8.054;2024-01-30T12:39:15;33.20;;;19.17;;
35907;SDS011;22003;50.320;8.054;2024-01-30T12:41:40;31.67;;;18.80;;
35907;SDS011;22003;50.320;8.054;2024-01-30T12:44:06;29.88;;;17.63;;
35907;SDS011;22003;50.320;8.054;2024-01-30T12:46:33;27.63;;;16.67;;
35907;SDS011;22003;50.320;8.054;2024-01-30T12:48:59;25.92;;;17.25;;
35907;SDS011;22003;50.320;8.054;2024-01-30T12:51:24;31.92;;;18.67;;
35907;SDS011;22003;50.320;8.054;2024-01-30T12:53:50;37.25;;;19.13;;
35907;SDS011;22003;50.320;8.054;2024-01-30T12:56:15;31.38;;;18.10;;
35907;SDS011;22003;50.320;8.054;2024-01-30T12:58:41;33.00;;;17.77;;
35907;SDS011;22003;50.320;8.054;2024-01-30T13:01:08;34.15;;;19.10;;
35907;SDS011;22003;50.320;8.054;2024-01-30T13:03:33;31.20;;;18.95;;
35907;SDS011;22003;50.320;8.054;2024-01-30T13:05:58;34.53;;;18.27;;
35907;SDS011;22003;50.320;8.054;2024-01-30T13:08:23;29.17;;;16.30;;
35907;SDS011;22003;50.320;8.054;2024-01-30T13:10:49;28.92;;;15.98;;
35907;SDS011;22003;50.320;8.054;2024-01-30T13:13:14;27.88;;;16.77;;
35907;SDS011;22003;50.320;8.054;2024-01-30T13:15:39;26.63;;;17.50;;
35907;SDS011;22003;50.320;8.054;2024-01-30T13:18:05;28.88;;;16.13;;
35907;SDS011;22003;50.320;8.054;2024-01-30T13:20:31;26.42;;;16.15;;
35907;SDS011;22003;50.320;8.054;2024-01-30T13:22:56;26.50;;;17.60;;
35907;SDS011;22003;50.320;8.054;2024-01-30T13:25:22;32.63;;;17.80;;
35907;SDS011;22003;50.320;8.054;2024-01-30T13:27:47;30.35;;;18.23;;
35907;SDS011;22003;50.320;8.054;2024-01-30T13:30:12;35.60;;;17.20;;
35907;SDS011;22003;50.320;8.054;2024-01-30T13:32:37;32.65;;;18.95;;
35907;SDS011;22003;50.320;8.054;2024-01-30T13:35:03;29.88;;;18.52;;
35907;SDS011;22003;50.320;8.054;2024-01-30T13:37:28;31.67;;;18.60;;
35907;SDS011;22003;50.320;8.054;2024-01-30T13:39:54;38.03;;;20.10;;
35907;SDS011;22003;50.320;8.054;2024-01-30T13:42:20;42.80;;;21.55;;
35907;SDS011;22003;50.320;8.054;2024-01-30T13:44:45;35.08;;;20.55;;
35907;SDS011;22003;50.320;8.054;2024-01-30T13:47:10;43.92;;;22.00;;
35907;SDS011;22003;50.320;8.054;2024-01-30T13:49:35;33.05;;;19.42;;
35907;SDS011;22003;50.320;8.054;2024-01-30T13:52:01;32.08;;;19.17;;
35907;SDS011;22003;50.320;8.054;2024-01-30T13:54:26;32.03;;;20.15;;
35907;SDS011;22003;50.320;8.054;2024-01-30T13:56:51;34.25;;;19.85;;
35907;SDS011;22003;50.320;8.054;2024-01-30T13:59:17;36.85;;;20.83;;
35907;SDS011;22003;50.320;8.054;2024-01-30T14:01:48;36.70;;;21.77;;
35907;SDS011;22003;50.320;8.054;2024-01-30T14:04:14;32.38;;;20.25;;
35907;SDS011;22003;50.320;8.054;2024-01-30T14:06:39;33.78;;;18.98;;
35907;SDS011;22003;50.320;8.054;2024-01-30T14:09:05;34.55;;;20.30;;
35907;SDS011;22003;50.320;8.054;2024-01-30T14:11:30;29.33;;;17.83;;
35907;SDS011;22003;50.320;8.054;2024-01-30T14:13:56;35.60;;;19.73;;